Thunder radar more information blitzortung!


Radar de pluja more information rain snow radar


Visita la nostra xarxa de llocs de meteo:

Template documentation
and downloads

And another site



No particular awareness of the weather is required.    There are no Weather-warnings

Pagina Historial Weather Underground text

Diari Resum Juliol 18, 2017 Unitats:  Mètric    Imperial   Tant
« Previous Dia
SegĂźent Dia »
Diari Setmana Mensual Anual Personalitzada
  Maxima: Minima: Media:
Temperatura: -17.8 °C -6.7 °C -2.1 °C
Punt de rosada: -17.8 °C -11.8 °C -9.4 °C
Humitat: Humidity % 28 % 47 %
Wind Speed: 0 km/h 0 km/h 10.9 km/h
RĂ fegues de vent: 0 km/h - -
Vent:- - SSW
Pression baro: 0 hPa 34293.4 hPa -
Precipitacions: 0 mm    
Historical Graphs
 
 
Dades de taula per Juliol 18, 2017
Temps Temperatura Punt de rosada Pression baro Vent Wind Speed RĂ fegues de vent Humitat Rainfall Rate (Hourly)
-17.8 °C -17.8 °C 0 hPa Calm     Humidity % 0 mm
00:00 -6.2 °C -8.7 °C 34395 hPa Calm   2.6 km/h 75 % 0 mm
00:04 -4.8 °C -8.7 °C 34395 hPa ENE 3.1 km/h 3.1 km/h 65 % 0 mm
00:10 -6.2 °C -8.8 °C 34395 hPa North 2.6 km/h 2.6 km/h 75 % 0 mm
00:20 -6.3 °C -8.7 °C 34395 hPa NNE 2.6 km/h 5.1 km/h 76 % 0 mm
00:30 -6.3 °C -8.8 °C 34361.1 hPa NE 2.6 km/h 5.1 km/h 76 % 0 mm
00:40 -6.4 °C -8.9 °C 34361.1 hPa Calm   5.1 km/h 76 % 0 mm
00:50 -6.6 °C -9 °C 34361.1 hPa Calm     76 % 0 mm
01:00 -6.7 °C -9.1 °C 34361.1 hPa Calm     76 % 0 mm
01:10 -6.7 °C -9 °C 34361.1 hPa SE 2.6 km/h 2.6 km/h 77 % 0 mm
01:25 -6.7 °C -9 °C 34361.1 hPa Calm   5.1 km/h 77 % 0 mm
01:35 -6.7 °C -9.1 °C 34361.1 hPa ENE 2.6 km/h   77 % 0 mm
01:45 -6.7 °C -8.9 °C 34361.1 hPa Calm   2.6 km/h 78 % 0 mm
01:55 -6.7 °C -8.9 °C 34361.1 hPa Calm     78 % 0 mm
02:05 -6.7 °C -8.9 °C 34361.1 hPa Calm     78 % 0 mm
02:15 -6.7 °C -8.8 °C 34361.1 hPa Calm   2.6 km/h 78 % 0 mm
02:25 -6.6 °C -8.8 °C 34361.1 hPa Calm   2.6 km/h 77 % 0 mm
02:35 -6.4 °C -8.8 °C 34361.1 hPa South 2.6 km/h 7.7 km/h 77 % 0 mm
02:45 -6.3 °C -8.9 °C 34395 hPa Calm   5.1 km/h 75 % 0 mm
02:55 -6.1 °C -8.8 °C 34361.1 hPa Calm   7.7 km/h 74 % 0 mm
03:05 -5.9 °C -8.7 °C 34361.1 hPa NNE 2.6 km/h 5.1 km/h 73 % 0 mm
03:15 -5.8 °C -8.7 °C 34395 hPa NE 2.6 km/h 7.7 km/h 72 % 0 mm
03:25 -5.9 °C -9 °C 34361.1 hPa NE 5.1 km/h 7.7 km/h 71 % 0 mm
03:35 -5.8 °C -8.8 °C 34361.1 hPa NE 2.6 km/h 7.7 km/h 71 % 0 mm
03:45 -5.3 °C -8.7 °C 34361.1 hPa NE 5.1 km/h 7.7 km/h 69 % 0 mm
03:55 -5.1 °C -8.6 °C 34395 hPa ENE 5.1 km/h 7.7 km/h 68 % 0 mm
04:05 -5.2 °C -8.9 °C 34395 hPa NE 5.1 km/h 10.3 km/h 66 % 0 mm
04:15 -4.7 °C -8.4 °C 34395 hPa NE 5.1 km/h 10.3 km/h 66 % 0 mm
04:25 -4.5 °C -8.4 °C 34395 hPa NE 2.6 km/h 10.3 km/h 65 % 0 mm
04:35 -3.8 °C -8.2 °C 34395 hPa NE 2.6 km/h 2.6 km/h 61 % 0 mm
04:45 -3.3 °C -7.7 °C 34395 hPa NNW 5.1 km/h 7.7 km/h 62 % 0 mm
04:55 -3.6 °C -7.9 °C 34395 hPa NNE 2.6 km/h 5.1 km/h 62 % 0 mm
05:05 -3.6 °C -7.8 °C 34395 hPa NE 7.7 km/h 10.3 km/h 63 % 0 mm
05:15 -3.6 °C -7.8 °C 34395 hPa ENE 5.1 km/h 7.7 km/h 63 % 0 mm
05:25 -3.3 °C -7.7 °C 34395 hPa ENE 2.6 km/h 7.7 km/h 62 % 0 mm
05:35 -2.7 °C -7.4 °C 34395 hPa West 7.7 km/h 7.7 km/h 60 % 0 mm
05:45 -2.4 °C -7.4 °C 34395 hPa SSW 7.7 km/h 10.3 km/h 58 % 0 mm
10:49 -2.1 °C -7.3 °C 34395 hPa South 6 km/h 6 km/h 57 % 0 mm
10:54 -2.2 °C -7.5 °C 34395 hPa South 9 km/h 9.8 km/h 56 % 0 mm
10:59 -2.2 °C -7.7 °C 34395 hPa SW 9.8 km/h 9.8 km/h 55 % 0 mm
11:05 -2.2 °C -7.9 °C 34395 hPa West 11.9 km/h 11.9 km/h 54 % 0 mm
11:10 -2 °C -8 °C 34395 hPa SSW 11.9 km/h 11.9 km/h 52 % 0 mm
11:15 -1.8 °C -8 °C 34395 hPa SSW 17.9 km/h 17.9 km/h 51 % 0 mm
11:20 -1.8 °C -8 °C 34395 hPa SSE 15 km/h 15 km/h 51 % 0 mm
11:25 -1.8 °C -8.2 °C 34395 hPa SW 29.8 km/h 29.8 km/h 50 % 0 mm
11:30 -1.5 °C -8.1 °C 34395 hPa SSW 6 km/h 9.8 km/h 49 % 0 mm
11:35 -1.6 °C -8.1 °C 34395 hPa West 20.9 km/h 20.9 km/h 49 % 0 mm
11:40 -1.6 °C -8.2 °C 34361.1 hPa WSW 5.1 km/h 15.6 km/h 49 % 0 mm
11:45 -1.3 °C -7.9 °C 34361.1 hPa WSW 5.1 km/h 15.6 km/h 49 % 0 mm
11:50 -1.3 °C -7.9 °C 34361.1 hPa WSW 15.3 km/h 15.3 km/h 49 % 0 mm
11:55 -1.3 °C -7.9 °C 34395 hPa WSW 15.3 km/h 15.3 km/h 49 % 0 mm
12:00 -1.2 °C -7.9 °C 34395 hPa SSW 15 km/h 15 km/h 48 % 0 mm
12:05 -1 °C -7.8 °C 34395 hPa WSW 17.9 km/h 17.9 km/h 48 % 0 mm
12:10 -1.1 °C -7.9 °C 34395 hPa WSW 15 km/h 15 km/h 48 % 0 mm
12:15 -0.9 °C -7.7 °C 34395 hPa SW 17.9 km/h 17.9 km/h 48 % 0 mm
12:20 -0.9 °C -7.9 °C 34395 hPa SW 12.9 km/h 15.6 km/h 47 % 0 mm
12:25 -0.7 °C -7.7 °C 34361.1 hPa SW 15.6 km/h 20.8 km/h 47 % 0 mm
12:30 -0.8 °C -8 °C 34361.1 hPa SW 7.7 km/h 20.8 km/h 46 % 0 mm
12:35 -0.4 °C -7.6 °C 34361.1 hPa ENE 9 km/h 9 km/h 46 % 0 mm
12:40 -0.2 °C -7.6 °C 34361.1 hPa East 11.9 km/h 11.9 km/h 45 % 0 mm
12:45 -0.2 °C -7.8 °C 34361.1 hPa South 15 km/h 15 km/h 44 % 0 mm
12:50 0.1 °C -7.8 °C 34361.1 hPa WSW 7.6 km/h 8.5 km/h 43 % 0 mm
12:55 0.3 °C -7.6 °C 34361.1 hPa SSW 20.9 km/h 20.9 km/h 43 % 0 mm
13:00 -0.1 °C -7.9 °C 34361.1 hPa SW 9 km/h 9 km/h 43 % 0 mm
13:05 -0.1 °C -8.2 °C 34361.1 hPa SW 15 km/h 15 km/h 42 % 0 mm
13:10 -0.2 °C -8.2 °C 34361.1 hPa SW 11.9 km/h 12.2 km/h 42 % 0 mm
13:15 -0.3 °C -8.3 °C 34361.1 hPa SSE 6 km/h 9.8 km/h 42 % 0 mm
13:20 -0.1 °C -8.3 °C 34361.1 hPa West 20.9 km/h 20.9 km/h 41 % 0 mm
13:21 0.1 °C -8.2 °C 34361.1 hPa West 15 km/h 15 km/h 41 % 0 mm
13:26 0.4 °C -8.2 °C 34361.1 hPa SSW 14.5 km/h 14.5 km/h 40 % 0 mm
13:31 0.4 °C -8.3 °C 34361.1 hPa SW 20.9 km/h 20.9 km/h 39 % 0 mm
13:37 0.2 °C -8.5 °C 34361.1 hPa SW 22 km/h 22 km/h 39 % 0 mm
13:42 0.4 °C -8.3 °C 34361.1 hPa SW 14 km/h 14 km/h 39 % 0 mm
13:47 0.7 °C -8.8 °C 34361.1 hPa SSE 17.9 km/h 17.9 km/h 36 % 0 mm
13:52 0.7 °C -8.6 °C 34361.1 hPa SW 17.9 km/h 17.9 km/h 37 % 0 mm
13:57 0.8 °C -8.7 °C 34361.1 hPa South 9 km/h 9.3 km/h 36 % 0 mm
14:02 0.8 °C -8.4 °C 34361.1 hPa SE 15 km/h 15 km/h 37 % 0 mm
14:07 0.7 °C -8.8 °C 34361.1 hPa SW 20.3 km/h 20.3 km/h 36 % 0 mm
14:12 0.6 °C -8.7 °C 34361.1 hPa SW 20.9 km/h 20.9 km/h 37 % 0 mm
14:17 0.7 °C -8.8 °C 34361.1 hPa WSW 20.3 km/h 20.3 km/h 36 % 0 mm
14:22 0.9 °C -8.7 °C 34361.1 hPa SW 11.9 km/h 11.9 km/h 36 % 0 mm
14:27 0.9 °C -8.9 °C 34361.1 hPa SSW 8.5 km/h 8.5 km/h 35 % 0 mm
14:32 0.9 °C -8.7 °C 34361.1 hPa SW 23.8 km/h 23.8 km/h 36 % 0 mm
14:37 1 °C -8.5 °C 34327.3 hPa SW 11.9 km/h 11.9 km/h 36 % 0 mm
14:42 1 °C -8.5 °C 34327.3 hPa West 10.3 km/h 10.3 km/h 36 % 0 mm
14:48 0.7 °C -9.1 °C 34327.3 hPa WNW 16.1 km/h 16.1 km/h 35 % 0 mm
14:53 0.4 °C -9.1 °C 34327.3 hPa SSW 26.9 km/h 26.9 km/h 36 % 0 mm
14:58 0.5 °C -9 °C 34327.3 hPa SE 20.9 km/h 20.9 km/h 36 % 0 mm
15:03 0.7 °C -9.1 °C 34327.3 hPa SW 22 km/h 22 km/h 35 % 0 mm
15:08 0.6 °C -9.4 °C 34327.3 hPa SSW 15 km/h 15 km/h 34 % 0 mm
15:14 0.7 °C -9.1 °C 34327.3 hPa SW 15 km/h 15 km/h 35 % 0 mm
15:19 0.8 °C -9 °C 34327.3 hPa SW 15 km/h 15 km/h 35 % 0 mm
15:24 0.9 °C -9.1 °C 34327.3 hPa SSW 15 km/h 15 km/h 34 % 0 mm
15:29 0.8 °C -9.2 °C 34327.3 hPa SW 11.9 km/h 11.9 km/h 34 % 0 mm
15:34 0.7 °C -9.6 °C 34327.3 hPa WSW 23.8 km/h 23.8 km/h 33 % 0 mm
15:39 0.6 °C -9.7 °C 34327.3 hPa SW 23.8 km/h 23.8 km/h 33 % 0 mm
15:44 0.9 °C -9.4 °C 34327.3 hPa South 11.9 km/h 11.9 km/h 33 % 0 mm
15:49 1 °C -9.3 °C 34327.3 hPa WSW 26.4 km/h 26.4 km/h 33 % 0 mm
15:54 0.9 °C -9.6 °C 34327.3 hPa NNE 11.9 km/h 11.9 km/h 32 % 0 mm
15:59 0.9 °C -9.6 °C 34327.3 hPa SW 20.9 km/h 20.9 km/h 32 % 0 mm
16:05 0.7 °C -10.1 °C 34327.3 hPa SW 25.1 km/h 25.1 km/h 31 % 0 mm
16:10 0.8 °C -10.1 °C 34327.3 hPa SSW 17.9 km/h 17.9 km/h 31 % 0 mm
16:15 1 °C -9.8 °C 34327.3 hPa SW 26.9 km/h 26.9 km/h 31 % 0 mm
16:20 1 °C -9.8 °C 34327.3 hPa SW 15 km/h 15 km/h 31 % 0 mm
16:25 0.9 °C -9.9 °C 34293.4 hPa South 14 km/h 14 km/h 31 % 0 mm
16:30 0.8 °C -10.3 °C 34293.4 hPa SW 23.8 km/h 23.8 km/h 30 % 0 mm
16:35 0.7 °C -10.7 °C 34293.4 hPa South 17.9 km/h 17.9 km/h 29 % 0 mm
16:40 0.8 °C -10.6 °C 34361.1 hPa SW 20.9 km/h 20.9 km/h 29 % 0 mm
16:45 0.7 °C -10.7 °C 34361.1 hPa SW 23.8 km/h 23.8 km/h 29 % 0 mm
16:50 0.8 °C -10.6 °C 34361.1 hPa SW 11.9 km/h 11.9 km/h 29 % 0 mm
16:55 0.7 °C -10.7 °C 34327.3 hPa SW 15.6 km/h 23.3 km/h 29 % 0 mm
17:00 0.9 °C -10.2 °C 34327.3 hPa SW 16.6 km/h 16.6 km/h 30 % 0 mm
17:05 0.6 °C -10.8 °C 34327.3 hPa SW 15.6 km/h 33.6 km/h 29 % 0 mm
17:10 0.6 °C -10.7 °C 34327.3 hPa SW 12.9 km/h 23.3 km/h 29 % 0 mm
17:15 0.6 °C -10.8 °C 34327.3 hPa SW 7.7 km/h 25.9 km/h 29 % 0 mm
17:20 0.8 °C -10.6 °C 34327.3 hPa SW 12.9 km/h 25.9 km/h 29 % 0 mm
17:25 0.7 °C -11 °C 34327.3 hPa SSW 5.1 km/h 18.2 km/h 28 % 0 mm
17:30 0.7 °C -11 °C 34327.3 hPa SSW 7.7 km/h 18.2 km/h 28 % 0 mm
17:35 0.7 °C -10.9 °C 34327.3 hPa WSW 20.9 km/h 20.9 km/h 28 % 0 mm
17:40 0.8 °C -10.8 °C 34327.3 hPa SW 25.1 km/h 25.1 km/h 28 % 0 mm
17:45 0.6 °C -11.1 °C 34327.3 hPa SSW 20.9 km/h 20.9 km/h 28 % 0 mm
17:50 0.7 °C -11 °C 34327.3 hPa West 17.9 km/h 17.9 km/h 28 % 0 mm
17:55 0.4 °C -11.2 °C 34327.3 hPa SSW 20.9 km/h 20.9 km/h 28 % 0 mm
18:00 0.2 °C -11.4 °C 34327.3 hPa West 17.9 km/h 17.9 km/h 28 % 0 mm
18:05 0.1 °C -11.5 °C 34327.3 hPa SSW 20.9 km/h 20.9 km/h 28 % 0 mm
18:10 0.1 °C -11.4 °C 34327.3 hPa SSW 20.9 km/h 20.9 km/h 28 % 0 mm
18:15 0.1 °C -11.5 °C 34327.3 hPa SW 15 km/h 15 km/h 28 % 0 mm
18:20 -0.1 °C -11.3 °C 34327.3 hPa South 25.9 km/h 25.9 km/h 29 % 0 mm
18:25 -0.2 °C -11.4 °C 34327.3 hPa SSW 23.8 km/h 23.8 km/h 29 % 0 mm
18:30 -0.3 °C -11.5 °C 34327.3 hPa SW 23.8 km/h 23.8 km/h 29 % 0 mm
18:35 -0.2 °C -11.4 °C 34327.3 hPa SW 23.8 km/h 23.8 km/h 29 % 0 mm
18:40 -0.4 °C -11.6 °C 34327.3 hPa SW 15 km/h 15 km/h 29 % 0 mm
18:45 -0.3 °C -11.6 °C 34327.3 hPa WSW 17.9 km/h 17.9 km/h 29 % 0 mm
18:51 -0.5 °C -11.7 °C 34327.3 hPa WSW 20.9 km/h 20.9 km/h 29 % 0 mm
18:56 -0.6 °C -11.5 °C 34327.3 hPa SW 15 km/h 15 km/h 30 % 0 mm
19:01 -0.7 °C -11.3 °C 34327.3 hPa SSW 20.9 km/h 20.9 km/h 31 % 0 mm
19:06 -0.8 °C -11.3 °C 34327.3 hPa South 11.9 km/h 11.9 km/h 31 % 0 mm
19:11 -0.8 °C -11.2 °C 34327.3 hPa West 12.2 km/h 12.2 km/h 32 % 0 mm
19:15 -4.6 °C -8.4 °C 34361.1 hPa SW 5.1 km/h 7.7 km/h 66 % 0 mm
19:16 -1 °C -11 °C 34327.3 hPa SW 20.9 km/h 20.9 km/h 33 % 0 mm
19:17 -1 °C -11 °C 34327.3 hPa SW 17.9 km/h 17.9 km/h 33 % 0 mm
19:23 -1 °C -11.3 °C 34327.3 hPa SW 15 km/h 15 km/h 32 % 0 mm
19:25 -4.7 °C -8.4 °C 34361.1 hPa SW 5.1 km/h 7.7 km/h 66 % 0 mm
19:28 -1.2 °C -11.4 °C 34327.3 hPa WSW 20.9 km/h 20.9 km/h 32 % 0 mm
19:33 -1.3 °C -11.3 °C 34327.3 hPa SW 22 km/h 22 km/h 33 % 0 mm
19:35 -4.7 °C -8.3 °C 34361.1 hPa SW 7.7 km/h 7.7 km/h 67 % 0 mm
19:38 -1.5 °C -11.7 °C 34327.3 hPa WSW 26.9 km/h 26.9 km/h 32 % 0 mm
19:43 -1.5 °C -11.7 °C 34327.3 hPa SW 9 km/h 9 km/h 32 % 0 mm
19:45 -4.7 °C -7.9 °C 34361.1 hPa Calm   2.6 km/h 70 % 0 mm
19:48 -1.6 °C -11.8 °C 34327.3 hPa SW 15 km/h 15 km/h 32 % 0 mm
19:53 -1.6 °C -11.6 °C 34327.3 hPa SSW 15.6 km/h 15.6 km/h 33 % 0 mm
19:55 -4.7 °C -7.8 °C 34293.4 hPa NE 5.1 km/h 10.3 km/h 71 % 0 mm
19:58 -1.7 °C -11.2 °C 34327.3 hPa West 11.9 km/h 11.9 km/h 35 % 0 mm
20:03 -1.8 °C -11.3 °C 34327.3 hPa SW 17.9 km/h 17.9 km/h 35 % 0 mm
20:05 -4.7 °C -7.7 °C 34293.4 hPa NE 7.7 km/h 15.6 km/h 72 % 0 mm
20:08 -2 °C -11.2 °C 34327.3 hPa South 15 km/h 15 km/h 36 % 0 mm
20:14 -2.1 °C -11.2 °C 34327.3 hPa WSW 9 km/h 9 km/h 36 % 0 mm
20:19 -2.1 °C -11.3 °C 34327.3 hPa SW 15 km/h 15 km/h 36 % 0 mm
20:24 -2.2 °C -11.3 °C 34327.3 hPa SW 11.9 km/h 11.9 km/h 36 % 0 mm
20:25 -4.8 °C -7.9 °C 34327.3 hPa NE 5.1 km/h 5.1 km/h 71 % 0 mm
20:29 -2.4 °C -11.3 °C 34327.3 hPa SSW 9 km/h 9 km/h 37 % 0 mm
20:34 -2.5 °C -11.4 °C 34327.3 hPa WSW 9.8 km/h 9.8 km/h 37 % 0 mm
20:35 -4.8 °C -8 °C 34327.3 hPa WSW 5.1 km/h 7.7 km/h 70 % 0 mm
20:39 -2.6 °C -11.3 °C 34327.3 hPa SSW 9 km/h 9 km/h 38 % 0 mm
20:44 -2.7 °C -11.3 °C 34327.3 hPa WSW 6 km/h 6 km/h 38 % 0 mm
20:45 -4.8 °C -7.7 °C 34327.3 hPa Calm   5.1 km/h 72 % 0 mm
20:49 -2.8 °C -11.2 °C 34327.3 hPa SW 6 km/h 6 km/h 39 % 0 mm
20:54 -2.8 °C -11 °C 34327.3 hPa SSW 9 km/h 9 km/h 40 % 0 mm
20:59 -3 °C -10.9 °C 34327.3 hPa SSE 12.2 km/h 12.2 km/h 41 % 0 mm
21:05 -3.1 °C -10.8 °C 34327.3 hPa SW 5.1 km/h 15.6 km/h 42 % 0 mm
21:10 -3.2 °C -10.5 °C 34361.1 hPa WSW 5.1 km/h 15.6 km/h 44 % 0 mm
21:15 -3.3 °C -10.4 °C 34361.1 hPa SW 5.1 km/h 15.6 km/h 45 % 0 mm
21:20 -3.4 °C -10.3 °C 34361.1 hPa SW 7.7 km/h 15.6 km/h 46 % 0 mm
21:25 -3.4 °C -10.2 °C 34395 hPa SW 7.7 km/h 12.9 km/h 47 % 0 mm
21:30 -3.5 °C -10.1 °C 34395 hPa SW 7.7 km/h 15.6 km/h 48 % 0 mm
21:35 -3.6 °C -9.8 °C 34395 hPa SW 5.1 km/h 12.9 km/h 50 % 0 mm
21:40 -3.6 °C -9.8 °C 34361.1 hPa SW 5.1 km/h 12.9 km/h 50 % 0 mm
21:45 -3.7 °C -9.7 °C 34361.1 hPa SW 7.7 km/h 12.9 km/h 51 % 0 mm
21:50 -3.7 °C -9.6 °C 34361.1 hPa South 3.1 km/h   52 % 0 mm
21:55 -3.7 °C -9.4 °C 34361.1 hPa SSE 3.1 km/h   53 % 0 mm
22:00 -3.8 °C -9.5 °C 34361.1 hPa WSW 6 km/h 6 km/h 53 % 0 mm
22:05 -3.8 °C -9.5 °C 34361.1 hPa WSW 4.2 km/h   53 % 0 mm
22:10 -3.8 °C -9.6 °C 34361.1 hPa WSW 6 km/h 6 km/h 53 % 0 mm
22:15 -3.8 °C -9.4 °C 34361.1 hPa WSW 2.6 km/h 2.6 km/h 54 % 0 mm
22:20 -3.9 °C -9.4 °C 34361.1 hPa Calm   5.1 km/h 54 % 0 mm
22:25 -3.9 °C -9.4 °C 34361.1 hPa SW 2.6 km/h 7.7 km/h 54 % 0 mm
22:30 -3.9 °C -9.3 °C 34361.1 hPa SW 5.1 km/h 7.7 km/h 55 % 0 mm
22:35 -4 °C -9.2 °C 34361.1 hPa SW 9 km/h 9 km/h 56 % 0 mm
22:40 -4.1 °C -9.3 °C 34361.1 hPa Calm   5.1 km/h 56 % 0 mm
22:45 -4.1 °C -9.2 °C 34361.1 hPa Calm   2.6 km/h 57 % 0 mm
22:50 -4.2 °C -9.2 °C 34361.1 hPa Calm   2.6 km/h 57 % 0 mm
22:55 -4.2 °C -9.2 °C 34361.1 hPa SSW 2.6 km/h 5.1 km/h 57 % 0 mm
23:00 -4.2 °C -9.2 °C 34361.1 hPa Calm   5.1 km/h 57 % 0 mm
23:05 -4.2 °C -9.3 °C 34361.1 hPa WSW 2.6 km/h 5.1 km/h 57 % 0 mm
23:10 -4.3 °C -9.3 °C 34361.1 hPa SW 6 km/h 6 km/h 57 % 0 mm
23:15 -4.3 °C -9.2 °C 34361.1 hPa SW 2.6 km/h 5.1 km/h 58 % 0 mm
23:20 -4.3 °C -9.2 °C 34361.1 hPa SW 5.1 km/h 7.7 km/h 58 % 0 mm
23:25 -4.4 °C -9.3 °C 34361.1 hPa SW 5.1 km/h 7.7 km/h 58 % 0 mm
23:30 -4.5 °C -9.1 °C 34361.1 hPa SW 2.6 km/h 7.7 km/h 60 % 0 mm
23:35 -4.6 °C -9 °C 34361.1 hPa SW 5.1 km/h 7.7 km/h 61 % 0 mm
23:40 -4.6 °C -9 °C 34361.1 hPa SW 5.1 km/h 10.3 km/h 61 % 0 mm
23:45 -4.6 °C -8.9 °C 34361.1 hPa SW 5.1 km/h 7.7 km/h 62 % 0 mm
23:50 -4.6 °C -8.9 °C 34361.1 hPa SW 5.1 km/h 10.3 km/h 62 % 0 mm
23:55 -4.6 °C -8.8 °C 34361.1 hPa SW 5.1 km/h 12.9 km/h 63 % 0 mm
Meteo Sesrovires
Elogis d' Weather Underground - 3.75 mb

Guio original per  Jim McMurry - jmcmurry@mwt.net Adaptat per a la plantilla per  Wim van der Kuil - Leuven-Template.eu

Trobareu la nostra informacio del temps tambe a:

Weather Underground

AWEKAS